sensor_id;sensor_type;location;lat;lon;timestamp;P1;durP1;ratioP1;P2;durP2;ratioP2
79779;SDS011;69258;52.050;10.334;2023-07-13T00:11:43;3.43;;;1.93;;
79779;SDS011;69258;52.050;10.334;2023-07-13T00:26:47;1.67;;;1.57;;
79779;SDS011;69258;52.050;10.334;2023-07-13T00:41:49;3.33;;;1.77;;
79779;SDS011;69258;52.050;10.334;2023-07-13T00:56:52;1.97;;;1.60;;
79779;SDS011;69258;52.050;10.334;2023-07-13T01:11:57;2.93;;;1.70;;
79779;SDS011;69258;52.050;10.334;2023-07-13T01:27:00;1.90;;;1.40;;
79779;SDS011;69258;52.050;10.334;2023-07-13T01:42:02;1.97;;;1.60;;
79779;SDS011;69258;52.050;10.334;2023-07-13T01:57:05;2.50;;;1.73;;
79779;SDS011;69258;52.050;10.334;2023-07-13T02:12:07;3.50;;;1.77;;
79779;SDS011;69258;52.050;10.334;2023-07-13T02:27:09;2.27;;;1.57;;
79779;SDS011;69258;52.050;10.334;2023-07-13T02:42:12;1.97;;;1.60;;
79779;SDS011;69258;52.050;10.334;2023-07-13T02:57:15;3.30;;;1.60;;
79779;SDS011;69258;52.050;10.334;2023-07-13T03:12:16;2.03;;;1.70;;
79779;SDS011;69258;52.050;10.334;2023-07-13T03:27:19;2.13;;;1.70;;
79779;SDS011;69258;52.050;10.334;2023-07-13T03:42:21;1.70;;;1.60;;
79779;SDS011;69258;52.050;10.334;2023-07-13T03:57:22;2.10;;;1.83;;
79779;SDS011;69258;52.050;10.334;2023-07-13T04:12:25;2.07;;;1.70;;
79779;SDS011;69258;52.050;10.334;2023-07-13T04:27:29;2.10;;;1.83;;
79779;SDS011;69258;52.050;10.334;2023-07-13T04:42:31;4.20;;;1.70;;
79779;SDS011;69258;52.050;10.334;2023-07-13T04:57:34;7.93;;;2.63;;
79779;SDS011;69258;52.050;10.334;2023-07-13T05:12:37;5.57;;;2.10;;
79779;SDS011;69258;52.050;10.334;2023-07-13T05:27:39;7.10;;;2.23;;
79779;SDS011;69258;52.050;10.334;2023-07-13T05:42:42;9.43;;;2.43;;
79779;SDS011;69258;52.050;10.334;2023-07-13T05:57:44;4.80;;;2.10;;
79779;SDS011;69258;52.050;10.334;2023-07-13T06:12:47;3.53;;;1.80;;
79779;SDS011;69258;52.050;10.334;2023-07-13T06:27:50;3.87;;;2.10;;
79779;SDS011;69258;52.050;10.334;2023-07-13T06:42:52;3.10;;;2.00;;
79779;SDS011;69258;52.050;10.334;2023-07-13T06:57:54;4.00;;;1.77;;
79779;SDS011;69258;52.050;10.334;2023-07-13T07:12:57;3.93;;;1.70;;
79779;SDS011;69258;52.050;10.334;2023-07-13T07:27:58;2.50;;;1.70;;
79779;SDS011;69258;52.050;10.334;2023-07-13T07:43:03;2.73;;;1.77;;
79779;SDS011;69258;52.050;10.334;2023-07-13T07:58:06;3.70;;;1.70;;
79779;SDS011;69258;52.050;10.334;2023-07-13T08:13:29;2.70;;;1.70;;
79779;SDS011;69258;52.050;10.334;2023-07-13T08:28:31;1.67;;;1.50;;
79779;SDS011;69258;52.050;10.334;2023-07-13T08:43:35;4.87;;;1.60;;
79779;SDS011;69258;52.050;10.334;2023-07-13T08:58:37;5.30;;;1.57;;
79779;SDS011;69258;52.050;10.334;2023-07-13T09:13:47;4.37;;;1.80;;
79779;SDS011;69258;52.050;10.334;2023-07-13T09:29:13;3.90;;;1.70;;
79779;SDS011;69258;52.050;10.334;2023-07-13T09:44:18;2.50;;;1.50;;
79779;SDS011;69258;52.050;10.334;2023-07-13T09:59:34;3.57;;;1.47;;
79779;SDS011;69258;52.050;10.334;2023-07-13T10:14:41;2.07;;;1.50;;
79779;SDS011;69258;52.050;10.334;2023-07-13T10:29:45;3.20;;;1.40;;
79779;SDS011;69258;52.050;10.334;2023-07-13T10:44:54;2.40;;;1.37;;
79779;SDS011;69258;52.050;10.334;2023-07-13T11:00:16;2.33;;;1.60;;
79779;SDS011;69258;52.050;10.334;2023-07-13T11:15:42;8.80;;;3.00;;
79779;SDS011;69258;52.050;10.334;2023-07-13T11:45:51;7.00;;;2.97;;
79779;SDS011;69258;52.050;10.334;2023-07-13T12:00:55;5.17;;;2.63;;
79779;SDS011;69258;52.050;10.334;2023-07-13T12:16:00;6.10;;;2.60;;
79779;SDS011;69258;52.050;10.334;2023-07-13T12:31:03;4.40;;;1.93;;
79779;SDS011;69258;52.050;10.334;2023-07-13T12:46:16;3.60;;;1.77;;
79779;SDS011;69258;52.050;10.334;2023-07-13T13:01:18;3.03;;;1.83;;
79779;SDS011;69258;52.050;10.334;2023-07-13T13:31:25;3.70;;;1.70;;
79779;SDS011;69258;52.050;10.334;2023-07-13T13:46:27;8.00;;;1.67;;
79779;SDS011;69258;52.050;10.334;2023-07-13T14:01:29;2.90;;;1.70;;
79779;SDS011;69258;52.050;10.334;2023-07-13T14:16:33;4.23;;;1.73;;
79779;SDS011;69258;52.050;10.334;2023-07-13T14:31:36;2.37;;;1.47;;
79779;SDS011;69258;52.050;10.334;2023-07-13T14:46:38;4.73;;;1.63;;
79779;SDS011;69258;52.050;10.334;2023-07-13T15:01:43;2.80;;;1.40;;
79779;SDS011;69258;52.050;10.334;2023-07-13T15:16:46;3.23;;;1.63;;
79779;SDS011;69258;52.050;10.334;2023-07-13T15:31:52;1.80;;;1.30;;
79779;SDS011;69258;52.050;10.334;2023-07-13T15:46:54;3.57;;;1.50;;
79779;SDS011;69258;52.050;10.334;2023-07-13T16:01:57;1.73;;;1.47;;
79779;SDS011;69258;52.050;10.334;2023-07-13T16:17:00;2.37;;;1.43;;
79779;SDS011;69258;52.050;10.334;2023-07-13T16:47:13;3.93;;;1.80;;
79779;SDS011;69258;52.050;10.334;2023-07-13T17:17:32;3.93;;;1.90;;
79779;SDS011;69258;52.050;10.334;2023-07-13T17:32:35;3.23;;;1.63;;
79779;SDS011;69258;52.050;10.334;2023-07-13T17:47:38;2.10;;;1.90;;
79779;SDS011;69258;52.050;10.334;2023-07-13T18:02:41;3.53;;;1.80;;
79779;SDS011;69258;52.050;10.334;2023-07-13T18:17:48;2.23;;;1.70;;
79779;SDS011;69258;52.050;10.334;2023-07-13T18:32:52;2.97;;;1.70;;
79779;SDS011;69258;52.050;10.334;2023-07-13T18:47:56;1.90;;;1.70;;
79779;SDS011;69258;52.050;10.334;2023-07-13T19:02:58;2.80;;;1.80;;
79779;SDS011;69258;52.050;10.334;2023-07-13T19:18:04;2.10;;;1.77;;
79779;SDS011;69258;52.050;10.334;2023-07-13T19:33:14;1.73;;;1.60;;
79779;SDS011;69258;52.050;10.334;2023-07-13T19:48:18;2.50;;;1.70;;
79779;SDS011;69258;52.050;10.334;2023-07-13T20:03:21;2.27;;;1.50;;
79779;SDS011;69258;52.050;10.334;2023-07-13T20:18:23;4.73;;;1.63;;
79779;SDS011;69258;52.050;10.334;2023-07-13T20:33:27;2.50;;;1.67;;
79779;SDS011;69258;52.050;10.334;2023-07-13T20:48:40;1.93;;;1.70;;
79779;SDS011;69258;52.050;10.334;2023-07-13T21:03:44;1.87;;;1.53;;
79779;SDS011;69258;52.050;10.334;2023-07-13T21:18:47;1.87;;;1.40;;
79779;SDS011;69258;52.050;10.334;2023-07-13T21:33:51;3.03;;;1.70;;
79779;SDS011;69258;52.050;10.334;2023-07-13T21:48:55;2.20;;;1.83;;
79779;SDS011;69258;52.050;10.334;2023-07-13T22:03:58;2.63;;;1.57;;
79779;SDS011;69258;52.050;10.334;2023-07-13T22:19:09;1.83;;;1.60;;
79779;SDS011;69258;52.050;10.334;2023-07-13T22:34:15;2.10;;;1.90;;
79779;SDS011;69258;52.050;10.334;2023-07-13T22:49:22;1.60;;;1.50;;
79779;SDS011;69258;52.050;10.334;2023-07-13T23:04:29;2.10;;;1.70;;
79779;SDS011;69258;52.050;10.334;2023-07-13T23:19:35;2.13;;;1.73;;
79779;SDS011;69258;52.050;10.334;2023-07-13T23:34:37;2.03;;;1.80;;
79779;SDS011;69258;52.050;10.334;2023-07-13T23:49:39;4.17;;;1.60;;
